sensor_id;sensor_type;location;lat;lon;timestamp;P1;durP1;ratioP1;P2;durP2;ratioP2
46551;SDS011;32278;51.810;4.712;2024-03-22T00:02:17;67.68;;;41.88;;
46551;SDS011;32278;51.810;4.712;2024-03-22T00:04:43;62.75;;;40.90;;
46551;SDS011;32278;51.810;4.712;2024-03-22T00:07:09;67.35;;;42.47;;
46551;SDS011;32278;51.810;4.712;2024-03-22T00:09:35;67.38;;;42.45;;
46551;SDS011;32278;51.810;4.712;2024-03-22T00:12:01;72.93;;;43.28;;
46551;SDS011;32278;51.810;4.712;2024-03-22T00:14:27;68.07;;;43.83;;
46551;SDS011;32278;51.810;4.712;2024-03-22T00:16:53;62.40;;;41.22;;
46551;SDS011;32278;51.810;4.712;2024-03-22T00:19:19;69.30;;;42.03;;
46551;SDS011;32278;51.810;4.712;2024-03-22T00:21:45;68.28;;;41.47;;
46551;SDS011;32278;51.810;4.712;2024-03-22T00:24:10;75.55;;;44.20;;
46551;SDS011;32278;51.810;4.712;2024-03-22T00:26:36;65.70;;;41.78;;
46551;SDS011;32278;51.810;4.712;2024-03-22T00:29:02;70.38;;;41.38;;
46551;SDS011;32278;51.810;4.712;2024-03-22T00:31:28;75.28;;;44.17;;
46551;SDS011;32278;51.810;4.712;2024-03-22T00:33:54;76.53;;;43.80;;
46551;SDS011;32278;51.810;4.712;2024-03-22T00:36:20;71.13;;;41.75;;
46551;SDS011;32278;51.810;4.712;2024-03-22T00:38:46;65.40;;;42.00;;
46551;SDS011;32278;51.810;4.712;2024-03-22T00:41:13;73.50;;;43.20;;
46551;SDS011;32278;51.810;4.712;2024-03-22T00:43:39;69.68;;;42.65;;
46551;SDS011;32278;51.810;4.712;2024-03-22T00:46:04;65.72;;;43.47;;
46551;SDS011;32278;51.810;4.712;2024-03-22T00:48:30;72.28;;;43.75;;
46551;SDS011;32278;51.810;4.712;2024-03-22T00:50:56;69.10;;;44.45;;
46551;SDS011;32278;51.810;4.712;2024-03-22T00:53:22;67.63;;;40.95;;
46551;SDS011;32278;51.810;4.712;2024-03-22T00:55:48;66.85;;;39.80;;
46551;SDS011;32278;51.810;4.712;2024-03-22T00:58:17;61.80;;;39.83;;
46551;SDS011;32278;51.810;4.712;2024-03-22T01:00:43;67.25;;;39.63;;
46551;SDS011;32278;51.810;4.712;2024-03-22T01:03:09;54.10;;;35.17;;
46551;SDS011;32278;51.810;4.712;2024-03-22T01:05:35;56.92;;;37.58;;
46551;SDS011;32278;51.810;4.712;2024-03-22T01:08:01;60.00;;;34.42;;
46551;SDS011;32278;51.810;4.712;2024-03-22T01:10:27;53.30;;;33.30;;
46551;SDS011;32278;51.810;4.712;2024-03-22T01:12:53;59.97;;;33.25;;
46551;SDS011;32278;51.810;4.712;2024-03-22T01:15:19;50.05;;;31.35;;
46551;SDS011;32278;51.810;4.712;2024-03-22T01:17:45;51.63;;;30.88;;
46551;SDS011;32278;51.810;4.712;2024-03-22T01:20:11;53.80;;;32.17;;
46551;SDS011;32278;51.810;4.712;2024-03-22T01:22:37;54.22;;;32.08;;
46551;SDS011;32278;51.810;4.712;2024-03-22T01:25:05;50.05;;;31.75;;
46551;SDS011;32278;51.810;4.712;2024-03-22T01:27:31;52.28;;;32.03;;
46551;SDS011;32278;51.810;4.712;2024-03-22T01:29:57;56.88;;;32.78;;
46551;SDS011;32278;51.810;4.712;2024-03-22T01:32:23;56.58;;;32.67;;
46551;SDS011;32278;51.810;4.712;2024-03-22T01:34:49;59.95;;;33.58;;
46551;SDS011;32278;51.810;4.712;2024-03-22T01:37:15;61.35;;;32.80;;
46551;SDS011;32278;51.810;4.712;2024-03-22T01:39:41;60.35;;;34.17;;
46551;SDS011;32278;51.810;4.712;2024-03-22T01:42:07;61.63;;;33.58;;
46551;SDS011;32278;51.810;4.712;2024-03-22T01:44:33;65.18;;;36.85;;
46551;SDS011;32278;51.810;4.712;2024-03-22T01:46:59;68.30;;;38.72;;
46551;SDS011;32278;51.810;4.712;2024-03-22T01:49:25;73.95;;;39.85;;
46551;SDS011;32278;51.810;4.712;2024-03-22T01:51:52;68.47;;;38.90;;
46551;SDS011;32278;51.810;4.712;2024-03-22T01:54:19;76.80;;;42.97;;
46551;SDS011;32278;51.810;4.712;2024-03-22T01:56:45;78.03;;;43.17;;
46551;SDS011;32278;51.810;4.712;2024-03-22T01:59:11;82.60;;;45.20;;
46551;SDS011;32278;51.810;4.712;2024-03-22T02:01:37;89.20;;;48.67;;
46551;SDS011;32278;51.810;4.712;2024-03-22T02:04:03;80.40;;;46.63;;
46551;SDS011;32278;51.810;4.712;2024-03-22T02:06:29;86.68;;;47.88;;
46551;SDS011;32278;51.810;4.712;2024-03-22T02:08:56;83.22;;;47.88;;
46551;SDS011;32278;51.810;4.712;2024-03-22T02:11:22;89.65;;;49.55;;
46551;SDS011;32278;51.810;4.712;2024-03-22T02:13:48;90.03;;;49.45;;
46551;SDS011;32278;51.810;4.712;2024-03-22T02:16:14;94.43;;;51.13;;
46551;SDS011;32278;51.810;4.712;2024-03-22T02:18:40;96.22;;;51.60;;
46551;SDS011;32278;51.810;4.712;2024-03-22T02:21:06;99.65;;;54.08;;
46551;SDS011;32278;51.810;4.712;2024-03-22T02:23:32;100.30;;;54.63;;
46551;SDS011;32278;51.810;4.712;2024-03-22T02:25:59;99.80;;;54.88;;
46551;SDS011;32278;51.810;4.712;2024-03-22T02:28:25;101.68;;;54.35;;
46551;SDS011;32278;51.810;4.712;2024-03-22T02:30:51;95.43;;;52.67;;
46551;SDS011;32278;51.810;4.712;2024-03-22T02:33:17;99.78;;;54.22;;
46551;SDS011;32278;51.810;4.712;2024-03-22T02:35:43;99.70;;;53.35;;
46551;SDS011;32278;51.810;4.712;2024-03-22T02:38:09;92.15;;;51.03;;
46551;SDS011;32278;51.810;4.712;2024-03-22T02:40:35;94.50;;;53.08;;
46551;SDS011;32278;51.810;4.712;2024-03-22T02:43:01;98.15;;;53.92;;
46551;SDS011;32278;51.810;4.712;2024-03-22T02:45:27;93.22;;;52.75;;
46551;SDS011;32278;51.810;4.712;2024-03-22T02:47:53;87.75;;;52.30;;
46551;SDS011;32278;51.810;4.712;2024-03-22T02:50:19;87.72;;;51.80;;
46551;SDS011;32278;51.810;4.712;2024-03-22T02:52:45;94.10;;;52.17;;
46551;SDS011;32278;51.810;4.712;2024-03-22T02:55:11;88.25;;;50.72;;
46551;SDS011;32278;51.810;4.712;2024-03-22T02:57:37;88.65;;;50.33;;
46551;SDS011;32278;51.810;4.712;2024-03-22T03:00:03;84.22;;;49.88;;
46551;SDS011;32278;51.810;4.712;2024-03-22T03:02:30;90.18;;;49.60;;
46551;SDS011;32278;51.810;4.712;2024-03-22T03:04:56;85.47;;;50.17;;
46551;SDS011;32278;51.810;4.712;2024-03-22T03:07:22;86.40;;;48.30;;
46551;SDS011;32278;51.810;4.712;2024-03-22T03:09:48;93.32;;;50.00;;
46551;SDS011;32278;51.810;4.712;2024-03-22T03:12:14;89.25;;;49.25;;
46551;SDS011;32278;51.810;4.712;2024-03-22T03:14:40;88.32;;;52.40;;
46551;SDS011;32278;51.810;4.712;2024-03-22T03:17:06;79.32;;;48.90;;
46551;SDS011;32278;51.810;4.712;2024-03-22T03:19:33;78.50;;;44.10;;
46551;SDS011;32278;51.810;4.712;2024-03-22T03:21:58;84.00;;;46.13;;
46551;SDS011;32278;51.810;4.712;2024-03-22T03:24:24;83.53;;;49.25;;
46551;SDS011;32278;51.810;4.712;2024-03-22T03:26:51;86.88;;;48.58;;
46551;SDS011;32278;51.810;4.712;2024-03-22T03:29:17;82.30;;;47.53;;
46551;SDS011;32278;51.810;4.712;2024-03-22T03:31:43;84.40;;;49.03;;
46551;SDS011;32278;51.810;4.712;2024-03-22T03:34:09;82.13;;;48.30;;
46551;SDS011;32278;51.810;4.712;2024-03-22T03:36:35;84.32;;;48.97;;
46551;SDS011;32278;51.810;4.712;2024-03-22T03:39:01;78.22;;;46.75;;
46551;SDS011;32278;51.810;4.712;2024-03-22T03:41:27;79.57;;;46.47;;
46551;SDS011;32278;51.810;4.712;2024-03-22T03:43:53;74.93;;;44.90;;
46551;SDS011;32278;51.810;4.712;2024-03-22T03:46:19;72.55;;;44.60;;
46551;SDS011;32278;51.810;4.712;2024-03-22T03:48:45;78.78;;;48.58;;
46551;SDS011;32278;51.810;4.712;2024-03-22T03:51:11;69.50;;;44.40;;
46551;SDS011;32278;51.810;4.712;2024-03-22T03:53:37;70.95;;;45.03;;
46551;SDS011;32278;51.810;4.712;2024-03-22T03:56:03;77.03;;;46.50;;
46551;SDS011;32278;51.810;4.712;2024-03-22T03:58:29;77.57;;;47.42;;
46551;SDS011;32278;51.810;4.712;2024-03-22T04:00:55;79.40;;;47.40;;
46551;SDS011;32278;51.810;4.712;2024-03-22T04:03:21;78.72;;;45.10;;
46551;SDS011;32278;51.810;4.712;2024-03-22T04:05:55;75.30;;;43.22;;
46551;SDS011;32278;51.810;4.712;2024-03-22T04:08:21;74.50;;;43.78;;
46551;SDS011;32278;51.810;4.712;2024-03-22T04:10:51;73.80;;;43.58;;
46551;SDS011;32278;51.810;4.712;2024-03-22T04:13:17;74.18;;;44.03;;
46551;SDS011;32278;51.810;4.712;2024-03-22T04:15:43;70.32;;;42.65;;
46551;SDS011;32278;51.810;4.712;2024-03-22T04:18:09;69.55;;;42.42;;
46551;SDS011;32278;51.810;4.712;2024-03-22T04:20:35;64.13;;;40.97;;
46551;SDS011;32278;51.810;4.712;2024-03-22T04:23:01;63.95;;;39.22;;
46551;SDS011;32278;51.810;4.712;2024-03-22T04:25:27;72.28;;;39.92;;
46551;SDS011;32278;51.810;4.712;2024-03-22T04:27:53;61.63;;;38.50;;
46551;SDS011;32278;51.810;4.712;2024-03-22T04:30:19;65.82;;;39.20;;
46551;SDS011;32278;51.810;4.712;2024-03-22T04:32:47;59.40;;;36.95;;
46551;SDS011;32278;51.810;4.712;2024-03-22T04:35:13;62.97;;;38.05;;
46551;SDS011;32278;51.810;4.712;2024-03-22T04:37:39;57.72;;;36.70;;
46551;SDS011;32278;51.810;4.712;2024-03-22T04:40:05;64.53;;;38.70;;
46551;SDS011;32278;51.810;4.712;2024-03-22T04:42:32;56.80;;;36.63;;
46551;SDS011;32278;51.810;4.712;2024-03-22T04:44:58;54.45;;;34.22;;
46551;SDS011;32278;51.810;4.712;2024-03-22T04:47:24;54.47;;;31.70;;
46551;SDS011;32278;51.810;4.712;2024-03-22T04:49:50;52.10;;;33.63;;
46551;SDS011;32278;51.810;4.712;2024-03-22T04:52:16;50.95;;;31.98;;
46551;SDS011;32278;51.810;4.712;2024-03-22T04:54:42;49.28;;;31.67;;
46551;SDS011;32278;51.810;4.712;2024-03-22T04:57:08;46.88;;;31.10;;
46551;SDS011;32278;51.810;4.712;2024-03-22T04:59:34;52.30;;;31.25;;
46551;SDS011;32278;51.810;4.712;2024-03-22T05:02:00;50.20;;;32.58;;
46551;SDS011;32278;51.810;4.712;2024-03-22T05:04:26;50.72;;;31.23;;
46551;SDS011;32278;51.810;4.712;2024-03-22T05:06:51;51.25;;;32.38;;
46551;SDS011;32278;51.810;4.712;2024-03-22T05:09:17;56.33;;;34.63;;
46551;SDS011;32278;51.810;4.712;2024-03-22T05:11:43;54.08;;;31.88;;
46551;SDS011;32278;51.810;4.712;2024-03-22T05:14:14;51.67;;;32.38;;
46551;SDS011;32278;51.810;4.712;2024-03-22T05:16:40;56.03;;;30.58;;
46551;SDS011;32278;51.810;4.712;2024-03-22T05:19:07;53.80;;;31.90;;
46551;SDS011;32278;51.810;4.712;2024-03-22T05:21:32;49.15;;;29.67;;
46551;SDS011;32278;51.810;4.712;2024-03-22T05:23:59;51.10;;;31.90;;
46551;SDS011;32278;51.810;4.712;2024-03-22T05:26:25;51.33;;;30.73;;
46551;SDS011;32278;51.810;4.712;2024-03-22T05:28:50;47.20;;;29.80;;
46551;SDS011;32278;51.810;4.712;2024-03-22T05:31:17;51.83;;;30.00;;
46551;SDS011;32278;51.810;4.712;2024-03-22T05:33:43;57.13;;;30.50;;
46551;SDS011;32278;51.810;4.712;2024-03-22T05:36:09;50.63;;;29.98;;
46551;SDS011;32278;51.810;4.712;2024-03-22T05:38:35;49.92;;;29.55;;
46551;SDS011;32278;51.810;4.712;2024-03-22T05:41:04;52.22;;;30.45;;
46551;SDS011;32278;51.810;4.712;2024-03-22T05:43:31;45.40;;;29.55;;
46551;SDS011;32278;51.810;4.712;2024-03-22T05:45:57;48.95;;;29.25;;
46551;SDS011;32278;51.810;4.712;2024-03-22T05:48:23;48.15;;;30.42;;
46551;SDS011;32278;51.810;4.712;2024-03-22T05:50:49;47.53;;;29.38;;
46551;SDS011;32278;51.810;4.712;2024-03-22T05:53:15;53.33;;;32.40;;
46551;SDS011;32278;51.810;4.712;2024-03-22T05:55:42;51.05;;;28.65;;
46551;SDS011;32278;51.810;4.712;2024-03-22T05:58:08;49.35;;;29.80;;
46551;SDS011;32278;51.810;4.712;2024-03-22T06:00:34;51.85;;;31.20;;
46551;SDS011;32278;51.810;4.712;2024-03-22T06:03:00;61.13;;;30.55;;
46551;SDS011;32278;51.810;4.712;2024-03-22T06:05:26;43.55;;;28.20;;
46551;SDS011;32278;51.810;4.712;2024-03-22T06:07:52;51.78;;;29.77;;
46551;SDS011;32278;51.810;4.712;2024-03-22T06:10:18;44.72;;;30.27;;
46551;SDS011;32278;51.810;4.712;2024-03-22T06:12:44;47.80;;;28.83;;
46551;SDS011;32278;51.810;4.712;2024-03-22T06:15:12;50.15;;;30.83;;
46551;SDS011;32278;51.810;4.712;2024-03-22T06:17:38;53.67;;;31.15;;
46551;SDS011;32278;51.810;4.712;2024-03-22T06:20:04;59.30;;;32.13;;
46551;SDS011;32278;51.810;4.712;2024-03-22T06:22:30;52.83;;;31.25;;
46551;SDS011;32278;51.810;4.712;2024-03-22T06:24:56;53.00;;;33.20;;
46551;SDS011;32278;51.810;4.712;2024-03-22T06:27:23;55.67;;;32.78;;
46551;SDS011;32278;51.810;4.712;2024-03-22T06:29:49;51.03;;;32.50;;
46551;SDS011;32278;51.810;4.712;2024-03-22T06:32:15;52.25;;;32.75;;
46551;SDS011;32278;51.810;4.712;2024-03-22T06:34:41;57.67;;;33.45;;
46551;SDS011;32278;51.810;4.712;2024-03-22T06:37:07;59.30;;;35.08;;
46551;SDS011;32278;51.810;4.712;2024-03-22T06:39:33;55.53;;;34.95;;
46551;SDS011;32278;51.810;4.712;2024-03-22T06:42:01;62.38;;;34.92;;
46551;SDS011;32278;51.810;4.712;2024-03-22T06:44:27;62.10;;;35.45;;
46551;SDS011;32278;51.810;4.712;2024-03-22T06:46:53;66.55;;;36.78;;
46551;SDS011;32278;51.810;4.712;2024-03-22T06:49:19;62.80;;;34.78;;
46551;SDS011;32278;51.810;4.712;2024-03-22T06:51:45;62.22;;;34.38;;
46551;SDS011;32278;51.810;4.712;2024-03-22T06:54:11;60.95;;;35.42;;
46551;SDS011;32278;51.810;4.712;2024-03-22T06:56:37;65.68;;;37.05;;
46551;SDS011;32278;51.810;4.712;2024-03-22T06:59:03;64.00;;;35.83;;
46551;SDS011;32278;51.810;4.712;2024-03-22T07:01:29;59.70;;;36.67;;
46551;SDS011;32278;51.810;4.712;2024-03-22T07:03:55;61.53;;;35.42;;
46551;SDS011;32278;51.810;4.712;2024-03-22T07:06:20;64.22;;;37.97;;
46551;SDS011;32278;51.810;4.712;2024-03-22T07:08:46;64.68;;;39.45;;
46551;SDS011;32278;51.810;4.712;2024-03-22T07:11:12;65.00;;;39.75;;
46551;SDS011;32278;51.810;4.712;2024-03-22T07:13:38;70.07;;;39.22;;
46551;SDS011;32278;51.810;4.712;2024-03-22T07:16:05;64.90;;;38.40;;
46551;SDS011;32278;51.810;4.712;2024-03-22T07:18:31;64.95;;;36.65;;
46551;SDS011;32278;51.810;4.712;2024-03-22T07:20:56;67.07;;;37.60;;
46551;SDS011;32278;51.810;4.712;2024-03-22T07:23:27;59.85;;;37.47;;
46551;SDS011;32278;51.810;4.712;2024-03-22T07:25:53;59.33;;;36.75;;
46551;SDS011;32278;51.810;4.712;2024-03-22T07:28:19;62.03;;;36.17;;
46551;SDS011;32278;51.810;4.712;2024-03-22T07:30:46;54.85;;;36.30;;
46551;SDS011;32278;51.810;4.712;2024-03-22T07:33:12;56.60;;;35.17;;
46551;SDS011;32278;51.810;4.712;2024-03-22T07:35:41;63.65;;;37.03;;
46551;SDS011;32278;51.810;4.712;2024-03-22T07:38:07;56.50;;;34.90;;
46551;SDS011;32278;51.810;4.712;2024-03-22T07:40:33;62.65;;;38.92;;
46551;SDS011;32278;51.810;4.712;2024-03-22T07:42:59;60.20;;;36.88;;
46551;SDS011;32278;51.810;4.712;2024-03-22T07:45:30;63.88;;;36.33;;
46551;SDS011;32278;51.810;4.712;2024-03-22T07:47:56;59.80;;;35.75;;
46551;SDS011;32278;51.810;4.712;2024-03-22T07:50:22;60.65;;;34.58;;
46551;SDS011;32278;51.810;4.712;2024-03-22T07:52:48;51.33;;;34.40;;
46551;SDS011;32278;51.810;4.712;2024-03-22T07:55:15;62.45;;;36.40;;
46551;SDS011;32278;51.810;4.712;2024-03-22T07:57:41;61.50;;;33.92;;
46551;SDS011;32278;51.810;4.712;2024-03-22T08:00:07;53.40;;;33.10;;
46551;SDS011;32278;51.810;4.712;2024-03-22T08:02:35;49.90;;;33.67;;
46551;SDS011;32278;51.810;4.712;2024-03-22T08:05:01;56.13;;;33.67;;
46551;SDS011;32278;51.810;4.712;2024-03-22T08:07:27;50.35;;;32.92;;
46551;SDS011;32278;51.810;4.712;2024-03-22T08:09:54;53.58;;;32.55;;
46551;SDS011;32278;51.810;4.712;2024-03-22T08:12:21;49.92;;;33.28;;
46551;SDS011;32278;51.810;4.712;2024-03-22T08:14:47;51.53;;;31.25;;
46551;SDS011;32278;51.810;4.712;2024-03-22T08:17:13;52.15;;;30.63;;
46551;SDS011;32278;51.810;4.712;2024-03-22T08:19:39;51.78;;;31.38;;
46551;SDS011;32278;51.810;4.712;2024-03-22T08:22:05;46.83;;;29.60;;
46551;SDS011;32278;51.810;4.712;2024-03-22T08:24:32;46.67;;;28.48;;
46551;SDS011;32278;51.810;4.712;2024-03-22T08:26:58;50.05;;;29.08;;
46551;SDS011;32278;51.810;4.712;2024-03-22T08:29:24;48.72;;;28.23;;
46551;SDS011;32278;51.810;4.712;2024-03-22T08:31:50;48.25;;;27.33;;
46551;SDS011;32278;51.810;4.712;2024-03-22T08:34:16;44.83;;;25.50;;
46551;SDS011;32278;51.810;4.712;2024-03-22T08:36:42;39.15;;;25.75;;
46551;SDS011;32278;51.810;4.712;2024-03-22T08:39:08;39.05;;;24.30;;
46551;SDS011;32278;51.810;4.712;2024-03-22T08:41:35;41.42;;;24.45;;
46551;SDS011;32278;51.810;4.712;2024-03-22T08:44:01;47.45;;;23.80;;
46551;SDS011;32278;51.810;4.712;2024-03-22T08:46:27;34.22;;;23.25;;
46551;SDS011;32278;51.810;4.712;2024-03-22T08:48:53;40.25;;;22.38;;
46551;SDS011;32278;51.810;4.712;2024-03-22T08:51:20;41.13;;;21.35;;
46551;SDS011;32278;51.810;4.712;2024-03-22T08:53:46;35.42;;;21.67;;
46551;SDS011;32278;51.810;4.712;2024-03-22T08:56:12;41.85;;;22.88;;
46551;SDS011;32278;51.810;4.712;2024-03-22T08:58:38;43.85;;;22.45;;
46551;SDS011;32278;51.810;4.712;2024-03-22T09:01:05;38.75;;;21.55;;
46551;SDS011;32278;51.810;4.712;2024-03-22T09:03:31;41.88;;;24.98;;
46551;SDS011;32278;51.810;4.712;2024-03-22T09:05:57;40.45;;;21.63;;
46551;SDS011;32278;51.810;4.712;2024-03-22T09:08:23;45.58;;;20.95;;
46551;SDS011;32278;51.810;4.712;2024-03-22T09:10:49;39.28;;;21.42;;
46551;SDS011;32278;51.810;4.712;2024-03-22T09:13:15;48.17;;;23.35;;
46551;SDS011;32278;51.810;4.712;2024-03-22T09:15:41;39.63;;;21.48;;
46551;SDS011;32278;51.810;4.712;2024-03-22T09:18:07;47.05;;;20.35;;
46551;SDS011;32278;51.810;4.712;2024-03-22T09:20:33;40.08;;;19.20;;
46551;SDS011;32278;51.810;4.712;2024-03-22T09:22:59;37.33;;;19.92;;
46551;SDS011;32278;51.810;4.712;2024-03-22T09:25:25;50.00;;;20.38;;
46551;SDS011;32278;51.810;4.712;2024-03-22T09:27:51;41.83;;;19.85;;
46551;SDS011;32278;51.810;4.712;2024-03-22T09:30:17;38.72;;;19.45;;
46551;SDS011;32278;51.810;4.712;2024-03-22T09:32:44;43.30;;;19.92;;
46551;SDS011;32278;51.810;4.712;2024-03-22T09:35:10;44.30;;;19.95;;
46551;SDS011;32278;51.810;4.712;2024-03-22T09:37:39;44.53;;;19.23;;
46551;SDS011;32278;51.810;4.712;2024-03-22T09:40:05;52.05;;;21.55;;
46551;SDS011;32278;51.810;4.712;2024-03-22T09:42:32;44.13;;;21.60;;
46551;SDS011;32278;51.810;4.712;2024-03-22T09:44:59;41.25;;;19.65;;
46551;SDS011;32278;51.810;4.712;2024-03-22T09:47:25;47.70;;;20.73;;
46551;SDS011;32278;51.810;4.712;2024-03-22T09:49:52;44.00;;;20.13;;
46551;SDS011;32278;51.810;4.712;2024-03-22T09:52:18;43.63;;;20.70;;
46551;SDS011;32278;51.810;4.712;2024-03-22T09:54:45;47.20;;;21.10;;
46551;SDS011;32278;51.810;4.712;2024-03-22T09:57:15;40.40;;;20.00;;
46551;SDS011;32278;51.810;4.712;2024-03-22T09:59:41;39.13;;;19.35;;
46551;SDS011;32278;51.810;4.712;2024-03-22T10:02:09;37.30;;;19.45;;
46551;SDS011;32278;51.810;4.712;2024-03-22T10:04:36;43.92;;;19.88;;
46551;SDS011;32278;51.810;4.712;2024-03-22T10:07:02;37.92;;;18.83;;
46551;SDS011;32278;51.810;4.712;2024-03-22T10:09:29;43.90;;;22.40;;
46551;SDS011;32278;51.810;4.712;2024-03-22T10:11:55;32.83;;;18.33;;
46551;SDS011;32278;51.810;4.712;2024-03-22T10:14:21;35.67;;;20.27;;
46551;SDS011;32278;51.810;4.712;2024-03-22T10:16:50;41.17;;;20.80;;
46551;SDS011;32278;51.810;4.712;2024-03-22T10:19:18;39.55;;;17.98;;
46551;SDS011;32278;51.810;4.712;2024-03-22T10:21:44;36.53;;;20.70;;
46551;SDS011;32278;51.810;4.712;2024-03-22T10:24:10;37.17;;;19.88;;
46551;SDS011;32278;51.810;4.712;2024-03-22T10:26:36;44.97;;;20.33;;
46551;SDS011;32278;51.810;4.712;2024-03-22T10:29:06;42.33;;;20.38;;
46551;SDS011;32278;51.810;4.712;2024-03-22T10:31:34;38.53;;;20.20;;
46551;SDS011;32278;51.810;4.712;2024-03-22T10:34:01;41.38;;;22.08;;
46551;SDS011;32278;51.810;4.712;2024-03-22T10:36:31;49.20;;;20.42;;
46551;SDS011;32278;51.810;4.712;2024-03-22T10:38:57;48.78;;;21.65;;
46551;SDS011;32278;51.810;4.712;2024-03-22T10:41:25;37.08;;;17.77;;
46551;SDS011;32278;51.810;4.712;2024-03-22T10:43:51;38.88;;;20.83;;
46551;SDS011;32278;51.810;4.712;2024-03-22T10:46:17;40.75;;;19.90;;
46551;SDS011;32278;51.810;4.712;2024-03-22T10:48:45;46.00;;;19.80;;
46551;SDS011;32278;51.810;4.712;2024-03-22T10:51:12;44.60;;;22.65;;
46551;SDS011;32278;51.810;4.712;2024-03-22T10:53:38;46.72;;;19.98;;
46551;SDS011;32278;51.810;4.712;2024-03-22T10:56:05;47.72;;;19.33;;
46551;SDS011;32278;51.810;4.712;2024-03-22T10:58:33;37.70;;;17.95;;
46551;SDS011;32278;51.810;4.712;2024-03-22T11:00:59;39.55;;;20.50;;
46551;SDS011;32278;51.810;4.712;2024-03-22T11:03:25;48.33;;;20.35;;
46551;SDS011;32278;51.810;4.712;2024-03-22T11:05:54;36.67;;;18.02;;
46551;SDS011;32278;51.810;4.712;2024-03-22T11:08:24;50.30;;;20.25;;
46551;SDS011;32278;51.810;4.712;2024-03-22T11:10:51;37.30;;;17.02;;
46551;SDS011;32278;51.810;4.712;2024-03-22T11:13:17;38.95;;;18.15;;
46551;SDS011;32278;51.810;4.712;2024-03-22T11:15:43;36.47;;;16.83;;
46551;SDS011;32278;51.810;4.712;2024-03-22T11:18:09;50.90;;;20.17;;
46551;SDS011;32278;51.810;4.712;2024-03-22T11:20:38;33.15;;;17.55;;
46551;SDS011;32278;51.810;4.712;2024-03-22T11:23:04;28.02;;;16.35;;
46551;SDS011;32278;51.810;4.712;2024-03-22T11:25:33;27.70;;;16.30;;
46551;SDS011;32278;51.810;4.712;2024-03-22T11:27:59;28.33;;;15.73;;
46551;SDS011;32278;51.810;4.712;2024-03-22T11:30:29;35.85;;;16.05;;
46551;SDS011;32278;51.810;4.712;2024-03-22T11:32:55;28.75;;;14.73;;
46551;SDS011;32278;51.810;4.712;2024-03-22T11:35:21;31.60;;;15.85;;
46551;SDS011;32278;51.810;4.712;2024-03-22T11:37:49;31.23;;;15.52;;
46551;SDS011;32278;51.810;4.712;2024-03-22T11:40:16;30.52;;;15.77;;
46551;SDS011;32278;51.810;4.712;2024-03-22T11:42:43;29.38;;;15.10;;
46551;SDS011;32278;51.810;4.712;2024-03-22T11:45:11;26.05;;;13.40;;
46551;SDS011;32278;51.810;4.712;2024-03-22T11:47:38;29.52;;;15.02;;
46551;SDS011;32278;51.810;4.712;2024-03-22T11:50:04;21.95;;;12.98;;
46551;SDS011;32278;51.810;4.712;2024-03-22T11:52:30;23.13;;;13.10;;
46551;SDS011;32278;51.810;4.712;2024-03-22T11:54:56;18.85;;;13.88;;
46551;SDS011;32278;51.810;4.712;2024-03-22T11:57:23;25.42;;;13.18;;
46551;SDS011;32278;51.810;4.712;2024-03-22T11:59:50;20.75;;;12.85;;
46551;SDS011;32278;51.810;4.712;2024-03-22T12:02:17;20.17;;;13.48;;
46551;SDS011;32278;51.810;4.712;2024-03-22T12:04:45;19.55;;;12.77;;
46551;SDS011;32278;51.810;4.712;2024-03-22T12:07:15;24.52;;;13.98;;
46551;SDS011;32278;51.810;4.712;2024-03-22T12:09:41;19.98;;;13.80;;
46551;SDS011;32278;51.810;4.712;2024-03-22T12:12:08;21.55;;;14.45;;
46551;SDS011;32278;51.810;4.712;2024-03-22T12:14:34;25.02;;;15.02;;
46551;SDS011;32278;51.810;4.712;2024-03-22T12:17:01;21.38;;;14.32;;
46551;SDS011;32278;51.810;4.712;2024-03-22T12:19:27;23.38;;;14.65;;
46551;SDS011;32278;51.810;4.712;2024-03-22T12:21:53;27.73;;;13.68;;
46551;SDS011;32278;51.810;4.712;2024-03-22T12:24:19;23.35;;;12.68;;
46551;SDS011;32278;51.810;4.712;2024-03-22T12:26:45;23.73;;;12.68;;
46551;SDS011;32278;51.810;4.712;2024-03-22T12:29:12;17.63;;;10.77;;
46551;SDS011;32278;51.810;4.712;2024-03-22T12:31:38;21.15;;;11.40;;
46551;SDS011;32278;51.810;4.712;2024-03-22T12:34:04;18.38;;;10.98;;
46551;SDS011;32278;51.810;4.712;2024-03-22T12:36:30;18.17;;;10.35;;
46551;SDS011;32278;51.810;4.712;2024-03-22T12:38:57;16.40;;;9.77;;
46551;SDS011;32278;51.810;4.712;2024-03-22T12:41:24;19.23;;;11.30;;
46551;SDS011;32278;51.810;4.712;2024-03-22T12:43:50;21.88;;;11.35;;
46551;SDS011;32278;51.810;4.712;2024-03-22T12:46:16;20.30;;;10.43;;
46551;SDS011;32278;51.810;4.712;2024-03-22T12:48:42;21.20;;;12.43;;
46551;SDS011;32278;51.810;4.712;2024-03-22T12:51:08;22.40;;;12.80;;
46551;SDS011;32278;51.810;4.712;2024-03-22T12:53:34;20.75;;;11.73;;
46551;SDS011;32278;51.810;4.712;2024-03-22T12:56:00;23.58;;;13.23;;
46551;SDS011;32278;51.810;4.712;2024-03-22T12:58:29;22.17;;;13.18;;
46551;SDS011;32278;51.810;4.712;2024-03-22T13:00:55;19.05;;;12.57;;
46551;SDS011;32278;51.810;4.712;2024-03-22T13:03:21;19.60;;;12.80;;
46551;SDS011;32278;51.810;4.712;2024-03-22T13:05:46;26.40;;;13.40;;
46551;SDS011;32278;51.810;4.712;2024-03-22T13:08:12;23.48;;;12.38;;
46551;SDS011;32278;51.810;4.712;2024-03-22T13:10:38;17.50;;;11.85;;
46551;SDS011;32278;51.810;4.712;2024-03-22T13:13:08;24.17;;;12.95;;
46551;SDS011;32278;51.810;4.712;2024-03-22T13:15:34;19.27;;;11.90;;
46551;SDS011;32278;51.810;4.712;2024-03-22T13:18:02;17.15;;;10.23;;
46551;SDS011;32278;51.810;4.712;2024-03-22T13:20:28;17.83;;;9.32;;
46551;SDS011;32278;51.810;4.712;2024-03-22T13:22:54;17.58;;;11.63;;
46551;SDS011;32278;51.810;4.712;2024-03-22T13:25:20;14.38;;;9.43;;
46551;SDS011;32278;51.810;4.712;2024-03-22T13:27:46;13.07;;;8.93;;
46551;SDS011;32278;51.810;4.712;2024-03-22T13:30:12;14.80;;;9.10;;
46551;SDS011;32278;51.810;4.712;2024-03-22T13:32:39;14.10;;;8.77;;
46551;SDS011;32278;51.810;4.712;2024-03-22T13:35:06;12.25;;;9.00;;
46551;SDS011;32278;51.810;4.712;2024-03-22T13:37:32;15.15;;;10.45;;
46551;SDS011;32278;51.810;4.712;2024-03-22T13:39:58;16.85;;;11.48;;
46551;SDS011;32278;51.810;4.712;2024-03-22T13:42:25;17.08;;;12.40;;
46551;SDS011;32278;51.810;4.712;2024-03-22T13:44:51;21.77;;;12.85;;
46551;SDS011;32278;51.810;4.712;2024-03-22T13:47:17;19.27;;;12.00;;
46551;SDS011;32278;51.810;4.712;2024-03-22T13:49:44;22.80;;;14.13;;
46551;SDS011;32278;51.810;4.712;2024-03-22T13:52:11;25.27;;;17.40;;
46551;SDS011;32278;51.810;4.712;2024-03-22T13:54:37;31.08;;;21.48;;
46551;SDS011;32278;51.810;4.712;2024-03-22T13:57:02;34.50;;;22.35;;
46551;SDS011;32278;51.810;4.712;2024-03-22T13:59:29;32.40;;;22.88;;
46551;SDS011;32278;51.810;4.712;2024-03-22T14:01:55;43.63;;;21.63;;
46551;SDS011;32278;51.810;4.712;2024-03-22T14:04:21;34.92;;;22.42;;
46551;SDS011;32278;51.810;4.712;2024-03-22T14:06:48;37.58;;;21.65;;
46551;SDS011;32278;51.810;4.712;2024-03-22T14:09:14;34.00;;;19.15;;
46551;SDS011;32278;51.810;4.712;2024-03-22T14:11:40;31.08;;;18.50;;
46551;SDS011;32278;51.810;4.712;2024-03-22T14:14:07;28.67;;;16.63;;
46551;SDS011;32278;51.810;4.712;2024-03-22T14:16:34;23.77;;;14.13;;